createdAt,value
2022-12-06T00:01:18.352Z,7.47
2022-12-06T00:03:48.206Z,7.53
2022-12-06T00:06:18.652Z,7.71
2022-12-06T00:08:47.723Z,7.53
2022-12-06T00:11:26.780Z,7.68
2022-12-06T00:13:56.351Z,7.64
2022-12-06T00:16:24.593Z,7.80
2022-12-06T00:18:52.632Z,7.61
2022-12-06T00:21:28.805Z,7.75
2022-12-06T00:23:58.840Z,7.66
2022-12-06T00:26:26.481Z,7.61
2022-12-06T00:28:55.797Z,7.59
2022-12-06T00:31:25.727Z,7.52
2022-12-06T00:33:53.950Z,7.36
2022-12-06T00:36:29.885Z,7.31
2022-12-06T00:39:00.837Z,7.28
2022-12-06T00:41:28.225Z,7.18
2022-12-06T00:43:56.063Z,7.12
2022-12-06T00:46:28.796Z,7.10
2022-12-06T00:48:58.084Z,7.00
2022-12-06T00:51:28.285Z,7.08
2022-12-06T00:53:55.771Z,6.99
2022-12-06T00:56:23.577Z,7.01
2022-12-06T00:58:51.143Z,6.99
2022-12-06T01:01:22.090Z,6.87
2022-12-06T01:03:52.192Z,6.71
2022-12-06T01:06:23.140Z,6.77
2022-12-06T01:08:50.697Z,6.70
2022-12-06T01:11:18.285Z,6.69
2022-12-06T01:13:45.650Z,6.64
2022-12-06T01:16:16.693Z,6.62
2022-12-06T01:18:45.498Z,6.56
2022-12-06T01:21:15.570Z,6.55
2022-12-06T01:23:46.921Z,6.54
2022-12-06T01:26:26.095Z,6.54
2022-12-06T01:28:53.881Z,6.60
2022-12-06T01:31:21.713Z,6.53
2022-12-06T01:33:49.228Z,6.52
2022-12-06T01:36:23.092Z,6.57
2022-12-06T01:38:56.302Z,6.57
2022-12-06T01:41:25.841Z,6.63
2022-12-06T01:43:54.129Z,6.58
2022-12-06T01:46:42.019Z,6.69
2022-12-06T01:49:12.412Z,6.69
2022-12-06T01:52:01.633Z,6.61
2022-12-06T01:54:29.740Z,6.55
2022-12-06T01:56:58.124Z,6.48
2022-12-06T01:59:26.876Z,6.57
2022-12-06T02:01:55.039Z,6.58
2022-12-06T02:04:23.428Z,6.60
2022-12-06T02:06:52.853Z,6.63
2022-12-06T02:09:21.661Z,6.66
2022-12-06T02:11:49.187Z,6.72
2022-12-06T02:14:21.518Z,6.74
2022-12-06T02:17:03.764Z,6.77
2022-12-06T02:20:00.082Z,6.57
2022-12-06T02:22:46.349Z,6.45
2022-12-06T02:25:31.587Z,6.35
2022-12-06T02:28:41.353Z,6.23
2022-12-06T02:31:47.185Z,6.20
2022-12-06T02:34:30.438Z,6.21
2022-12-06T02:37:14.969Z,6.31
2022-12-06T02:39:54.359Z,6.43
2022-12-06T02:42:44.695Z,6.40
2022-12-06T02:45:20.989Z,6.38
2022-12-06T02:47:51.703Z,6.31
2022-12-06T02:50:25.313Z,6.32
2022-12-06T02:52:54.462Z,6.30
2022-12-06T02:55:23.787Z,6.21
2022-12-06T02:57:53.177Z,6.20
2022-12-06T03:00:29.782Z,6.16
2022-12-06T03:03:20.095Z,6.22
2022-12-06T03:06:03.724Z,6.32
2022-12-06T03:09:09.896Z,6.36
2022-12-06T03:12:01.576Z,6.52
2022-12-06T03:14:38.564Z,6.31
2022-12-06T03:17:21.099Z,6.29
2022-12-06T03:20:04.338Z,6.13
2022-12-06T03:22:40.232Z,6.13
2022-12-06T03:25:26.561Z,6.16
2022-12-06T03:27:56.910Z,6.16
2022-12-06T03:30:24.498Z,6.05
2022-12-06T03:32:51.872Z,6.08
2022-12-06T03:35:25.881Z,6.04
2022-12-06T03:38:03.449Z,6.07
2022-12-06T03:40:35.149Z,6.10
2022-12-06T03:43:02.860Z,6.17
2022-12-06T03:45:50.001Z,6.10
2022-12-06T03:48:22.952Z,6.19
2022-12-06T03:50:58.914Z,6.08
2022-12-06T03:53:26.828Z,6.08
2022-12-06T03:55:54.229Z,6.08
2022-12-06T03:58:21.648Z,6.10
2022-12-06T04:00:49.004Z,6.07
2022-12-06T04:03:16.599Z,5.97
2022-12-06T04:05:43.982Z,5.91
2022-12-06T04:08:11.420Z,5.78
2022-12-06T04:10:38.846Z,5.91
2022-12-06T04:13:06.303Z,5.75
2022-12-06T04:15:39.170Z,5.70
2022-12-06T04:18:19.098Z,5.81
2022-12-06T04:21:11.093Z,5.80
2022-12-06T04:23:40.401Z,5.81
2022-12-06T04:26:11.921Z,5.81
2022-12-06T04:28:58.102Z,5.67
2022-12-06T04:31:45.216Z,5.76
2022-12-06T04:34:34.829Z,5.61
2022-12-06T04:37:21.881Z,5.70
2022-12-06T04:39:50.026Z,5.66
2022-12-06T04:42:36.561Z,5.74
2022-12-06T04:45:05.527Z,5.68
2022-12-06T04:47:33.080Z,5.67
2022-12-06T04:50:00.713Z,5.85
2022-12-06T04:52:34.077Z,5.76
2022-12-06T04:55:04.511Z,5.68
2022-12-06T04:57:32.068Z,5.69
2022-12-06T04:59:59.733Z,5.58
2022-12-06T05:02:27.412Z,5.51
2022-12-06T05:04:54.786Z,5.44
2022-12-06T05:07:22.285Z,5.47
2022-12-06T05:09:49.693Z,5.51
2022-12-06T05:12:17.017Z,5.58
2022-12-06T05:14:44.367Z,5.53
2022-12-06T05:17:11.831Z,5.48
2022-12-06T05:19:39.170Z,5.37
2022-12-06T05:22:07.141Z,5.37
2022-12-06T05:24:34.620Z,5.41
2022-12-06T05:27:01.925Z,5.69
2022-12-06T05:29:29.405Z,5.53
2022-12-06T05:31:56.851Z,5.41
2022-12-06T05:34:24.989Z,5.55
2022-12-06T05:36:52.398Z,5.42
2022-12-06T05:39:19.784Z,5.43
2022-12-06T05:41:47.143Z,5.33
2022-12-06T05:44:14.485Z,5.42
2022-12-06T05:46:41.818Z,5.49
2022-12-06T05:49:09.187Z,5.36
2022-12-06T05:51:36.533Z,5.30
2022-12-06T05:54:06.663Z,5.20
2022-12-06T05:56:34.281Z,5.28
2022-12-06T05:59:01.748Z,5.51
2022-12-06T06:01:29.267Z,5.45
2022-12-06T06:03:56.644Z,5.39
2022-12-06T06:06:24.073Z,5.36
2022-12-06T06:08:52.631Z,5.34
2022-12-06T06:11:20.002Z,5.33
2022-12-06T06:13:47.349Z,5.33
2022-12-06T06:16:15.112Z,5.31
2022-12-06T06:18:42.849Z,5.32
2022-12-06T06:21:10.287Z,5.28
2022-12-06T06:23:37.611Z,5.34
2022-12-06T06:26:09.255Z,5.32
2022-12-06T06:28:36.655Z,5.29
2022-12-06T06:31:08.162Z,5.23
2022-12-06T06:33:36.224Z,5.43
2022-12-06T06:36:06.921Z,5.45
2022-12-06T06:38:34.228Z,5.33
2022-12-06T06:41:03.282Z,5.44
2022-12-06T06:43:31.281Z,5.32
2022-12-06T06:46:01.726Z,5.22
2022-12-06T06:48:32.041Z,5.15
2022-12-06T06:51:10.643Z,5.17
2022-12-06T06:53:38.935Z,4.99
2022-12-06T06:56:07.051Z,5.07
2022-12-06T06:58:34.508Z,5.11
2022-12-06T07:01:04.739Z,4.94
2022-12-06T07:03:32.946Z,4.96
2022-12-06T07:06:10.829Z,5.21
2022-12-06T07:08:40.045Z,5.30
2022-12-06T07:11:08.940Z,5.23
2022-12-06T07:13:37.361Z,5.16
2022-12-06T07:16:06.177Z,5.22
2022-12-06T07:18:36.430Z,5.39
2022-12-06T07:21:06.506Z,5.19
2022-12-06T07:23:35.607Z,5.14
2022-12-06T07:26:09.656Z,5.30
2022-12-06T07:28:40.888Z,5.35
2022-12-06T07:31:20.443Z,5.39
2022-12-06T07:33:48.978Z,5.45
2022-12-06T07:36:16.394Z,5.45
2022-12-06T07:38:47.512Z,5.43
2022-12-06T07:41:33.958Z,5.32
2022-12-06T07:44:20.756Z,5.49
2022-12-06T07:46:48.921Z,5.42
2022-12-06T07:49:18.576Z,5.39
2022-12-06T07:51:48.022Z,5.45
2022-12-06T07:54:16.168Z,5.27
2022-12-06T07:56:44.505Z,5.43
2022-12-06T07:59:12.299Z,5.49
2022-12-06T08:01:40.125Z,5.52
2022-12-06T08:04:08.205Z,5.55
2022-12-06T08:06:35.988Z,5.54
2022-12-06T08:09:04.247Z,5.64
2022-12-06T08:11:32.979Z,5.61
2022-12-06T08:14:00.255Z,5.57
2022-12-06T08:16:27.750Z,5.61
2022-12-06T08:18:55.601Z,5.69
2022-12-06T08:21:23.039Z,5.72
2022-12-06T08:23:50.441Z,5.78
2022-12-06T08:26:18.816Z,5.80
2022-12-06T08:28:47.008Z,5.77
2022-12-06T08:31:21.584Z,5.83
2022-12-06T08:33:49.478Z,5.84
2022-12-06T08:36:20.057Z,5.84
2022-12-06T08:38:48.305Z,5.89
2022-12-06T08:41:37.667Z,5.89
2022-12-06T08:44:05.571Z,5.88
2022-12-06T08:46:34.710Z,5.95
2022-12-06T08:49:02.379Z,5.83
2022-12-06T08:51:30.973Z,5.86
2022-12-06T08:53:58.586Z,5.74
2022-12-06T08:56:27.421Z,5.87
2022-12-06T08:58:55.869Z,5.91
2022-12-06T09:01:29.260Z,6.01
2022-12-06T09:04:01.562Z,6.23
2022-12-06T09:06:29.968Z,6.18
2022-12-06T09:08:58.528Z,6.46
2022-12-06T09:11:27.123Z,6.32
2022-12-06T09:13:54.509Z,6.33
2022-12-06T09:16:24.355Z,6.34
2022-12-06T09:18:52.390Z,6.33
2022-12-06T09:21:24.824Z,6.40
2022-12-06T09:23:55.848Z,6.36
2022-12-06T09:26:23.666Z,6.01
2022-12-06T09:28:53.638Z,5.88
2022-12-06T09:31:21.198Z,5.81
2022-12-06T09:33:48.648Z,6.04
2022-12-06T09:36:22.125Z,6.17
2022-12-06T09:38:55.964Z,6.27
2022-12-06T09:41:47.541Z,6.37
2022-12-06T09:44:48.254Z,6.40
2022-12-06T09:47:15.559Z,6.46
2022-12-06T09:50:12.486Z,6.53
2022-12-06T09:52:50.170Z,6.56
2022-12-06T09:55:23.501Z,6.67
2022-12-06T09:58:10.876Z,6.49
2022-12-06T10:00:48.540Z,6.37
2022-12-06T10:03:45.041Z,6.54
2022-12-06T10:06:18.661Z,6.50
2022-12-06T10:09:25.397Z,6.46
2022-12-06T10:12:14.127Z,6.57
2022-12-06T10:15:15.032Z,6.52
2022-12-06T10:18:03.782Z,6.88
2022-12-06T10:20:52.758Z,7.35
2022-12-06T10:23:45.929Z,7.64
2022-12-06T10:26:17.812Z,8.09
2022-12-06T10:28:50.197Z,8.39
2022-12-06T10:31:23.887Z,8.44
2022-12-06T10:33:51.257Z,8.61
2022-12-06T10:36:44.666Z,8.90
2022-12-06T10:39:20.193Z,8.95
2022-12-06T10:42:19.604Z,9.15
2022-12-06T10:44:53.728Z,9.41
2022-12-06T10:47:38.656Z,9.14
2022-12-06T10:50:30.711Z,9.21
2022-12-06T10:53:03.629Z,9.31
2022-12-06T10:55:45.729Z,9.34
2022-12-06T10:58:15.965Z,9.60
2022-12-06T11:00:52.708Z,9.31
2022-12-06T11:03:41.393Z,8.94
2022-12-06T11:06:15.759Z,8.63
2022-12-06T11:08:52.075Z,8.31
2022-12-06T11:11:30.777Z,8.14
2022-12-06T11:14:21.012Z,8.13
2022-12-06T11:17:05.055Z,7.97
2022-12-06T11:19:38.268Z,8.19
2022-12-06T11:22:13.420Z,8.40
2022-12-06T11:25:00.715Z,8.74
2022-12-06T11:27:35.546Z,8.91
2022-12-06T11:30:13.686Z,9.36
2022-12-06T11:32:46.739Z,9.36
2022-12-06T11:35:18.512Z,9.56
2022-12-06T11:37:53.555Z,9.59
2022-12-06T11:40:30.546Z,9.60
2022-12-06T11:43:01.973Z,9.72
2022-12-06T11:45:34.274Z,9.95
2022-12-06T11:48:11.502Z,9.98
2022-12-06T11:50:38.891Z,9.89
2022-12-06T11:53:13.659Z,9.95
2022-12-06T11:55:46.665Z,9.81
2022-12-06T11:58:26.775Z,9.44
2022-12-06T12:01:06.465Z,9.08
2022-12-06T12:03:39.490Z,8.81
2022-12-06T12:06:07.946Z,8.91
2022-12-06T12:08:37.176Z,8.93
2022-12-06T12:11:05.080Z,8.90
2022-12-06T12:13:44.659Z,8.84
2022-12-06T12:16:23.160Z,8.69
2022-12-06T12:18:55.235Z,8.48
2022-12-06T12:21:33.260Z,8.41
2022-12-06T12:24:01.426Z,8.40
2022-12-06T12:26:41.118Z,8.44
2022-12-06T12:29:08.400Z,8.28
2022-12-06T12:32:06.168Z,8.48
2022-12-06T12:34:33.543Z,8.26
2022-12-06T12:37:03.966Z,8.31
2022-12-06T12:39:41.154Z,8.32
2022-12-06T12:42:28.477Z,8.18
2022-12-06T12:45:00.222Z,8.31
2022-12-06T12:47:27.701Z,8.56
2022-12-06T12:50:04.302Z,8.74
2022-12-06T12:52:40.636Z,8.80
2022-12-06T12:55:30.536Z,8.97
2022-12-06T12:58:00.539Z,8.95
2022-12-06T13:00:27.913Z,8.99
2022-12-06T13:03:49.016Z,8.94
2022-12-06T13:06:06.125Z,9.18
2022-12-06T13:08:39.030Z,9.12
2022-12-06T13:11:08.928Z,8.93
2022-12-06T13:13:49.744Z,8.69
2022-12-06T13:16:23.340Z,8.56
2022-12-06T13:18:55.326Z,8.64
2022-12-06T13:21:27.799Z,8.64
2022-12-06T13:24:10.029Z,8.91
2022-12-06T13:26:54.479Z,8.78
2022-12-06T13:29:42.227Z,8.80
2022-12-06T13:32:16.840Z,8.74
2022-12-06T13:34:52.479Z,8.62
2022-12-06T13:37:43.626Z,8.33
2022-12-06T13:40:32.712Z,8.37
2022-12-06T13:43:01.519Z,8.40
2022-12-06T13:45:45.350Z,8.41
2022-12-06T13:48:24.807Z,8.55
2022-12-06T13:50:57.829Z,8.52
2022-12-06T13:53:27.165Z,8.50
2022-12-06T13:56:28.777Z,8.44
2022-12-06T13:58:57.987Z,8.34
2022-12-06T14:01:40.956Z,8.40
2022-12-06T14:07:00.180Z,8.32
2022-12-06T14:09:37.373Z,8.28
2022-12-06T14:12:25.816Z,8.21
2022-12-06T14:15:01.387Z,8.03
2022-12-06T14:18:01.651Z,8.03
2022-12-06T14:20:28.950Z,7.93
2022-12-06T14:22:56.746Z,7.72
2022-12-06T14:25:28.398Z,7.67
2022-12-06T14:28:06.107Z,7.43
2022-12-06T14:30:34.267Z,7.37
2022-12-06T14:33:01.820Z,7.39
2022-12-06T14:35:36.187Z,7.33
2022-12-06T14:38:17.861Z,7.35
2022-12-06T14:41:04.048Z,7.32
2022-12-06T14:43:33.215Z,7.29
2022-12-06T14:46:03.541Z,7.29
2022-12-06T14:48:52.621Z,7.31
2022-12-06T14:51:25.532Z,7.16
2022-12-06T14:53:53.511Z,7.22
2022-12-06T14:56:35.363Z,7.11
2022-12-06T14:59:10.496Z,7.06
2022-12-06T15:01:50.659Z,7.18
2022-12-06T15:04:28.084Z,6.98
2022-12-06T15:06:56.923Z,6.93
2022-12-06T15:09:25.056Z,6.91
2022-12-06T15:12:11.305Z,6.78
2022-12-06T15:14:49.592Z,6.71
2022-12-06T15:17:19.627Z,6.63
2022-12-06T15:19:52.668Z,6.59
2022-12-06T15:22:26.697Z,6.53
2022-12-06T15:24:59.884Z,6.53
2022-12-06T15:27:28.046Z,6.42
2022-12-06T15:29:55.609Z,6.36
2022-12-06T15:32:24.808Z,6.34
2022-12-06T15:34:52.121Z,6.46
2022-12-06T15:40:08.566Z,6.54
2022-12-06T15:42:36.101Z,6.49
2022-12-06T15:45:04.120Z,6.35
2022-12-06T15:47:31.717Z,6.29
2022-12-06T15:49:59.026Z,6.15
2022-12-06T15:52:27.465Z,6.18
2022-12-06T15:54:54.781Z,6.21
2022-12-06T15:57:22.012Z,6.15
2022-12-06T15:59:49.318Z,6.04
2022-12-06T16:02:18.281Z,5.99
2022-12-06T16:04:48.353Z,6.02
2022-12-06T16:07:18.645Z,6.01
2022-12-06T16:09:47.488Z,5.92
2022-12-06T16:12:17.469Z,5.80
2022-12-06T16:14:44.804Z,5.79
2022-12-06T16:17:12.109Z,5.89
2022-12-06T16:19:58.834Z,5.73
2022-12-06T16:22:45.840Z,5.72
2022-12-06T16:25:15.217Z,5.73
2022-12-06T16:27:42.503Z,5.72
2022-12-06T16:30:10.289Z,5.70
2022-12-06T16:32:37.621Z,5.71
2022-12-06T16:35:05.081Z,5.66
2022-12-06T16:37:32.427Z,5.46
2022-12-06T16:39:59.693Z,5.56
2022-12-06T16:42:26.949Z,5.68
2022-12-06T16:44:54.234Z,5.69
2022-12-06T16:49:49.090Z,5.79
2022-12-06T16:52:17.153Z,5.92
2022-12-06T16:54:44.898Z,5.88
2022-12-06T16:57:13.145Z,5.96
2022-12-06T16:59:42.275Z,5.96
2022-12-06T17:02:31.760Z,6.02
2022-12-06T17:05:01.869Z,6.05
2022-12-06T17:07:29.699Z,6.08
2022-12-06T17:09:57.044Z,6.08
2022-12-06T17:12:24.463Z,6.02
2022-12-06T17:14:51.905Z,6.10
2022-12-06T17:17:23.012Z,5.97
2022-12-06T17:19:50.694Z,5.97
2022-12-06T17:22:19.342Z,6.00
2022-12-06T17:24:46.838Z,5.99
2022-12-06T17:27:17.602Z,6.06
2022-12-06T17:29:45.479Z,5.96
2022-12-06T17:32:13.356Z,5.92
2022-12-06T17:34:40.728Z,5.93
2022-12-06T17:37:08.122Z,5.89
2022-12-06T17:39:35.684Z,5.79
2022-12-06T17:42:22.203Z,5.82
2022-12-06T17:44:52.661Z,5.86
2022-12-06T17:47:20.190Z,5.90
2022-12-06T17:49:47.478Z,5.91
2022-12-06T17:52:15.113Z,5.99
2022-12-06T17:54:42.630Z,5.95
2022-12-06T17:57:17.526Z,5.96
2022-12-06T17:59:47.013Z,6.01
2022-12-06T18:02:18.535Z,5.80
2022-12-06T18:04:47.519Z,5.82
2022-12-06T18:07:16.626Z,5.84
2022-12-06T18:09:45.035Z,5.87
2022-12-06T18:12:14.478Z,5.84
2022-12-06T18:14:45.482Z,5.75
2022-12-06T18:17:13.210Z,5.70
2022-12-06T18:19:40.939Z,5.71
2022-12-06T18:22:08.429Z,5.79
2022-12-06T18:24:36.418Z,5.76
2022-12-06T18:27:05.689Z,5.64
2022-12-06T18:29:34.106Z,5.63
2022-12-06T18:32:01.825Z,5.62
2022-12-06T18:34:29.370Z,5.53
2022-12-06T18:36:59.482Z,5.65
2022-12-06T18:39:28.018Z,5.58
2022-12-06T18:41:55.481Z,5.60
2022-12-06T18:44:23.416Z,5.49
2022-12-06T18:46:51.254Z,5.53
2022-12-06T18:49:18.764Z,5.50
2022-12-06T18:51:46.128Z,5.58
2022-12-06T18:54:14.185Z,5.65
2022-12-06T18:56:42.914Z,5.64
2022-12-06T18:59:11.631Z,5.60
2022-12-06T19:01:40.588Z,5.67
2022-12-06T19:04:09.830Z,5.62
2022-12-06T19:06:38.577Z,5.58
2022-12-06T19:09:11.947Z,5.56
2022-12-06T19:11:41.949Z,5.56
2022-12-06T19:14:10.080Z,5.58
2022-12-06T19:16:43.446Z,5.59
2022-12-06T19:19:16.556Z,5.56
2022-12-06T19:21:46.645Z,5.51
2022-12-06T19:24:17.086Z,5.49
2022-12-06T19:26:44.849Z,5.58
2022-12-06T19:29:13.753Z,5.39
2022-12-06T19:31:42.189Z,5.38
2022-12-06T19:34:18.318Z,5.41
2022-12-06T19:36:45.819Z,5.44
2022-12-06T19:39:14.285Z,5.31
2022-12-06T19:42:00.688Z,5.08
2022-12-06T19:44:28.848Z,5.25
2022-12-06T19:46:56.884Z,5.13
2022-12-06T19:49:26.674Z,5.13
2022-12-06T19:51:54.323Z,5.15
2022-12-06T19:54:30.361Z,5.16
2022-12-06T19:57:01.346Z,4.99
2022-12-06T19:59:34.214Z,5.06
2022-12-06T20:02:03.061Z,5.11
2022-12-06T20:04:33.592Z,5.13
2022-12-06T20:07:01.284Z,5.06
2022-12-06T20:09:31.097Z,4.97
2022-12-06T20:12:03.731Z,5.03
2022-12-06T20:14:39.427Z,5.05
2022-12-06T20:17:11.593Z,5.03
2022-12-06T20:19:39.732Z,5.10
2022-12-06T20:22:07.078Z,5.02
2022-12-06T20:24:34.415Z,5.14
2022-12-06T20:27:01.993Z,5.10
2022-12-06T20:29:30.187Z,5.07
2022-12-06T20:31:59.995Z,4.98
2022-12-06T20:34:29.683Z,5.02
2022-12-06T20:36:57.142Z,5.12
2022-12-06T20:39:27.000Z,4.90
2022-12-06T20:41:54.497Z,4.75
2022-12-06T20:44:22.324Z,4.71
2022-12-06T20:46:52.619Z,4.88
2022-12-06T20:49:19.977Z,5.05
2022-12-06T20:51:52.901Z,4.78
2022-12-06T20:54:24.366Z,4.86
2022-12-06T20:56:53.181Z,4.99
2022-12-06T20:59:21.264Z,4.96
2022-12-06T21:01:49.458Z,4.86
2022-12-06T21:04:17.574Z,4.89
2022-12-06T21:06:45.081Z,4.83
2022-12-06T21:09:12.502Z,4.84
2022-12-06T21:11:39.988Z,4.91
2022-12-06T21:14:07.444Z,4.75
2022-12-06T21:16:38.087Z,4.96
2022-12-06T21:19:17.945Z,4.91
2022-12-06T21:21:48.703Z,4.90
2022-12-06T21:24:19.953Z,4.91
2022-12-06T21:26:48.176Z,4.96
2022-12-06T21:29:17.994Z,5.30
2022-12-06T21:31:45.680Z,5.10
2022-12-06T21:34:14.416Z,4.84
2022-12-06T21:36:45.372Z,4.86
2022-12-06T21:39:13.718Z,4.76
2022-12-06T21:41:41.543Z,4.78
2022-12-06T21:44:08.886Z,4.86
2022-12-06T21:46:36.380Z,4.88
2022-12-06T21:49:03.794Z,4.88
2022-12-06T21:51:31.906Z,4.81
2022-12-06T21:53:59.527Z,4.78
2022-12-06T21:56:29.685Z,4.81
2022-12-06T21:58:59.856Z,4.72
2022-12-06T22:01:29.342Z,4.78
2022-12-06T22:03:59.827Z,4.73
2022-12-06T22:06:27.246Z,4.72
2022-12-06T22:09:00.392Z,4.75
2022-12-06T22:11:28.921Z,4.78
2022-12-06T22:14:00.644Z,4.71
2022-12-06T22:16:28.724Z,4.64
2022-12-06T22:18:56.622Z,4.36
2022-12-06T22:21:26.533Z,4.31
2022-12-06T22:23:55.672Z,4.36
2022-12-06T22:26:23.804Z,4.39
2022-12-06T22:28:51.471Z,4.50
2022-12-06T22:31:19.943Z,4.52
2022-12-06T22:33:48.574Z,4.43
2022-12-06T22:36:16.936Z,4.39
2022-12-06T22:38:44.588Z,4.43
2022-12-06T22:41:11.944Z,4.41
2022-12-06T22:43:39.272Z,4.43
2022-12-06T22:46:15.228Z,4.44
2022-12-06T22:48:43.725Z,4.48
2022-12-06T22:51:19.605Z,4.44
2022-12-06T22:53:52.124Z,4.40
2022-12-06T22:56:19.680Z,4.39
2022-12-06T22:58:47.117Z,4.44
2022-12-06T23:01:19.935Z,4.39
2022-12-06T23:03:49.396Z,4.17
2022-12-06T23:06:19.250Z,4.24
2022-12-06T23:08:46.700Z,4.07
2022-12-06T23:11:20.365Z,3.95
2022-12-06T23:13:47.988Z,3.83
2022-12-06T23:16:18.048Z,3.81
2022-12-06T23:18:46.405Z,3.84
2022-12-06T23:21:13.694Z,3.91
2022-12-06T23:23:44.844Z,4.02
2022-12-06T23:26:15.777Z,3.85
2022-12-06T23:28:43.717Z,4.20
2022-12-06T23:31:25.789Z,4.07
2022-12-06T23:33:59.252Z,4.08
2022-12-06T23:36:29.611Z,4.15
2022-12-06T23:38:57.038Z,4.10
2022-12-06T23:41:26.993Z,4.01
2022-12-06T23:43:56.936Z,4.07
2022-12-06T23:46:35.645Z,4.20
2022-12-06T23:49:04.669Z,4.27
2022-12-06T23:51:37.160Z,4.22
2022-12-06T23:54:07.439Z,4.12
2022-12-06T23:56:37.973Z,4.13
2022-12-06T23:59:07.053Z,4.15
